Ivesdale, IL (61851)

6:55 AM CDT on July 28, 2016 (GMT -0500)
Jones Family | | Change Station

Elev 745 ft 40.00 °N, 88.58 °W | Updated 41 seconds ago

Mostly Cloudy
Mostly Cloudy
69.1 °F
Feels Like 69.1 °F
N
0.0
Wind Variable Wind from North
Gusts 0.7 mph

Today
High -- | Low -- °F
--% Chance of Precip.
Yesterday
High -- | Low -- °F
Precip. -- in
Pressure 29.90 in
Visibility 7.0 miles
Clouds Mostly Cloudy 1800 ft
Mostly Cloudy 2300 ft
Dew Point 61 °F
Humidity 75%
Rainfall 0.00 in
Snow Depth Not available.
5:49 AM 8:10 PM
Waning Crescent, 33% visible
METAR KCMI 281153Z 09006KT 7SM VCTS BKN018 BKN023 22/21 A2992 RMK AO2 LTG DSNT ALQDS SLP123 T02220206 10222 20211 53006
Pressure 29.90 in
Visibility 7.0 miles
Clouds Mostly Cloudy 1800 ft
Mostly Cloudy 2300 ft
Dew Point 61 °F
Humidity 75%
Rainfall 0.00 in
Snow Depth Not available.
5:49 AM 8:10 PM
Waning Crescent, 33% visible
METAR KCMI 281153Z 09006KT 7SM VCTS BKN018 BKN023 22/21 A2992 RMK AO2 LTG DSNT ALQDS SLP123 T02220206 10222 20211 53006

10-Day Weather Forecast

Almanac

Astronomy

Jul. 28, 2016 Rise Set
Actual Time
Civil Twilight
Nautical Twilight
Astronomical Twilight
Moon
Length of Visible Light
Length of Day
Tomorrow will be .
, % of the Moon is Illuminated

Today's Extremes

State Highs State Lows

Community

WunderPhotos

Upload Photos

1,928,096 photos uploaded!

WunderBlog® & News

Nearby

Air Quality

  Air Quality AQ Index Pollutant
Not available.

Snow Depth

Station Depth Elevation

Earthquake Activity

City Distance Mag. Time & Date
Minimum magnitude displayed is 2.5.

Coastal Water Temperatures

Place Temperature

Stations

Nearby Weather Stations

Station Location Temp. Windchill Dew Point Humidity Wind Precip. Elev Updated Type
                   

Watches & Warnings

There are currently no watches in effect.